Airfield :
LOGIN :

Register | Disclaimer

   EN    FR    IT 

 










Legend :    VFR   Marginal VFR   IFR   Intensive IFR   Very Intensive IFR
Visi :
Ceiling :
>= 8 km
>= 3000ft
5 to 8 km
1000 to 3000 ft
1500m to 5 km
500 to 1000 ft
800 to 1500m
200 to 500 ft
< 800m
< 200 ft
Symbols :   Thunderstorms  Fog  Heavy snow  Heavy precipitations  Wind > 20 kt
SIGMETs :     Misc.  Thunderstorms  Icing  Turbulence  Mountain Waves  Volcanic Ashes







- Airport Elevation : 3 ft
- IATA code : DHR


EHKD - Den Helder De Kooy

CURRENT METAR :
  • 201525Z AUTO 03010KT 350V060 9999 NCD 18/12 Q1022 BLU 03010KT CAVOK

EXPIRED METARs :
  • 201455Z AUTO 03009KT 360V070 9999 NCD 18/12 Q1022 BLU 03010KT CAVOK
  • 201425Z AUTO 03009KT 350V070 9999 NCD 18/12 Q1022 BLU 03010KT CAVOK
  • 201404Z AUTO 03011KT 360V060 9999 NCD 18/11 Q1022 BLU 03010KT CAVOK
  • 201355Z AUTO 04010KT 020V080 9999 NCD 18/12 Q1022 BLU 03005KT 7000 FEW020
  • 201325Z AUTO 04009KT 360V070 9999 NCD 18/12 Q1023 BLU 03005KT 7000 FEW020
  • 201255Z AUTO 04009KT 360V070 9999 NCD 18/11 Q1023 BLU 03005KT 7000 FEW020

TAF TAF EHKD
Valid from the 20 at 13:00 until the 21 at 01:00 UTC


201243Z 2013/2101 06010KT 9999 FEW035
No reported NOTAMs for that airfield.



MET'MAP, your aeronautical weather chart ! - Copyright ORBIFLY December 2007 - Disclaimer

ORBIFLY MET'MAP TEAM :

Programming & Development : Alexandra Zaïnal
Concept & Development : Baudouin d'Aumeries
Co-Development & Prog : Marc-Olivier Méhu
Technical & hardware support : Manuel Goepfert

Contact : metmap@orbifly.com




SOURCES & CREDITS :

   NOAA